Time;durP1;ratioP1;P1;durP2;ratioP2;P2;SDS_P1;SDS_P2;PMS_P1;PMS_P2;Temp;Humidity;BMP_temperature;BMP_pressure;BME280_temperature;BME280_humidity;BME280_pressure;Samples;Min_cycle;Max_cycle;Signal;HPM_P1;HPM_P2
2021/09/05 00:01:35;;;;;;;21.35;10.65;;;;;;;13.59;96.16;102112.53;4980948;28;20543;-65
2021/09/05 00:04:04;;;;;;;22.20;11.20;;;;;;;13.55;96.32;102115.31;4983746;28;20050;-65
2021/09/05 00:06:32;;;;;;;22.17;10.20;;;;;;;13.49;96.31;102126.22;4979586;28;20046;-66
2021/09/05 00:09:02;;;;;;;24.65;10.45;;;;;;;13.48;96.47;102119.94;4980577;28;20095;-65
2021/09/05 00:11:29;;;;;;;27.33;10.60;;;;;;;13.43;97.02;102132.59;4983367;28;20078;-65
2021/09/05 00:13:57;;;;;;;21.02;9.95;;;;;;;13.40;96.88;102127.28;4980752;28;20107;-65
2021/09/05 00:16:25;;;;;;;24.52;11.10;;;;;;;13.36;96.75;102128.28;4983977;28;20298;-65
2021/09/05 00:18:53;;;;;;;23.92;10.90;;;;;;;13.31;97.15;102125.69;4979560;28;20057;-65
2021/09/05 00:21:21;;;;;;;21.50;10.10;;;;;;;13.33;96.91;102133.72;4984790;28;20077;-64
2021/09/05 00:23:49;;;;;;;22.58;11.00;;;;;;;13.31;97.07;102135.53;4980113;28;20063;-64
2021/09/05 00:26:18;;;;;;;24.73;10.57;;;;;;;13.25;97.03;102137.44;4984037;28;20061;-64
2021/09/05 00:28:46;;;;;;;22.15;10.20;;;;;;;13.24;97.12;102124.94;4982387;28;20113;-64
2021/09/05 00:31:14;;;;;;;23.10;10.40;;;;;;;13.21;97.53;102129.47;4980552;28;20054;-64
2021/09/05 00:33:42;;;;;;;20.30;9.90;;;;;;;13.19;97.42;102120.59;4982052;28;20057;-64
2021/09/05 00:36:10;;;;;;;18.83;9.15;;;;;;;13.15;97.43;102122.47;4980532;28;20506;-64
2021/09/05 00:38:37;;;;;;;27.33;10.57;;;;;;;13.15;97.59;102122.47;4982459;28;20089;-64
2021/09/05 00:41:05;;;;;;;24.52;9.77;;;;;;;13.12;97.65;102132.38;4978950;28;20053;-64
2021/09/05 00:43:52;;;;;;;20.08;9.48;;;;;;;13.07;97.86;102130.66;4978137;28;20108;-64
2021/09/05 00:46:20;;;;;;;21.70;9.63;;;;;;;13.02;97.94;102119.16;4980580;28;20085;-64
2021/09/05 00:48:47;;;;;;;23.05;9.75;;;;;;;13.03;98.02;102128.13;4978998;28;20053;-64
2021/09/05 00:51:15;;;;;;;21.85;8.90;;;;;;;12.99;98.29;102119.25;4983213;28;20057;-65
2021/09/05 00:53:43;;;;;;;19.73;9.55;;;;;;;13.04;98.00;102128.09;4978668;28;20132;-65
2021/09/05 00:56:11;;;;;;;22.25;10.32;;;;;;;13.01;98.14;102125.47;4980663;28;20047;-65
2021/09/05 00:58:42;;;;;;;24.23;10.80;;;;;;;13.00;98.21;102129.03;4981797;28;20050;-65
2021/09/05 01:01:10;;;;;;;22.30;9.70;;;;;;;12.96;98.04;102127.38;4977836;28;20054;-69
2021/09/05 01:03:38;;;;;;;21.35;8.80;;;;;;;12.90;98.44;102135.53;4981092;28;20101;-69
2021/09/05 01:06:08;;;;;;;23.65;10.23;;;;;;;12.86;98.42;102133.84;4977587;28;20054;-70
2021/09/05 01:08:36;;;;;;;22.02;9.73;;;;;;;12.83;98.74;102128.53;4975232;28;20066;-69
2021/09/05 01:11:04;;;;;;;21.98;10.07;;;;;;;12.84;98.93;102127.63;4977196;28;20090;-70
2021/09/05 01:13:33;;;;;;;22.63;10.88;;;;;;;12.84;98.78;102133.00;4978453;28;20054;-66
2021/09/05 01:16:02;;;;;;;21.42;9.73;;;;;;;12.82;98.52;102135.69;4978774;28;20778;-67
2021/09/05 01:18:30;;;;;;;20.83;9.23;;;;;;;12.78;98.80;102133.97;4979682;28;20108;-66
2021/09/05 01:20:57;;;;;;;24.73;10.32;;;;;;;12.74;99.01;102128.75;4978350;28;20148;-65
2021/09/05 01:23:25;;;;;;;22.50;10.18;;;;;;;12.71;98.96;102127.88;4979163;28;20061;-66
2021/09/05 01:25:53;;;;;;;24.90;9.77;;;;;;;12.71;99.30;102140.38;4979809;28;20435;-70
2021/09/05 01:28:22;;;;;;;24.73;9.90;;;;;;;12.69;99.13;102140.41;4980515;28;20447;-70
2021/09/05 01:30:50;;;;;;;22.52;9.70;;;;;;;12.64;99.25;102138.75;4980150;28;20124;-69
2021/09/05 01:33:18;;;;;;;20.55;9.82;;;;;;;12.62;99.32;102137.91;4981057;28;20101;-70
2021/09/05 01:35:45;;;;;;;23.80;10.25;;;;;;;12.61;99.87;102137.00;4977586;28;20136;-69
2021/09/05 01:38:13;;;;;;;26.58;10.32;;;;;;;12.57;99.91;102139.78;4980705;28;20065;-69
2021/09/05 01:40:41;;;;;;;27.13;10.65;;;;;;;12.58;99.83;102136.19;4976268;28;20050;-69
2021/09/05 01:43:09;;;;;;;21.73;9.55;;;;;;;12.54;99.74;102134.50;4969388;28;20082;-69
2021/09/05 01:45:39;;;;;;;22.10;10.55;;;;;;;12.54;99.71;102135.38;4979624;28;20109;-69
2021/09/05 01:48:07;;;;;;;22.45;9.80;;;;;;;12.49;99.79;102140.78;4979179;28;20069;-70
2021/09/05 01:50:36;;;;;;;21.27;9.95;;;;;;;12.44;100.00;102133.78;4977205;28;20077;-70
2021/09/05 01:53:04;;;;;;;23.15;10.15;;;;;;;12.45;100.00;102136.44;4981215;28;20435;-71
2021/09/05 01:55:32;;;;;;;23.23;9.68;;;;;;;12.43;100.00;102137.34;4979222;28;20079;-71
2021/09/05 01:58:00;;;;;;;23.58;10.68;;;;;;;12.41;100.00;102133.81;4979147;28;20066;-71
2021/09/05 02:00:27;;;;;;;20.23;9.60;;;;;;;12.38;99.94;102142.81;4979886;28;20419;-69
2021/09/05 02:02:57;;;;;;;28.95;11.00;;;;;;;12.36;100.00;102147.31;4978334;28;20064;-70
2021/09/05 02:05:25;;;;;;;23.98;11.05;;;;;;;12.31;100.00;102142.03;4982087;28;20581;-69
2021/09/05 02:07:53;;;;;;;20.63;9.90;;;;;;;12.32;100.00;102145.59;4980016;28;20051;-70
2021/09/05 02:10:21;;;;;;;21.67;9.20;;;;;;;12.30;100.00;102152.78;4973859;28;20068;-71
2021/09/05 02:12:48;;;;;;;23.85;10.48;;;;;;;12.28;100.00;102149.25;4981121;28;20136;-70
2021/09/05 02:15:16;;;;;;;26.33;11.13;;;;;;;12.28;100.00;102151.94;4978913;28;20478;-70
2021/09/05 02:17:44;;;;;;;22.17;9.00;;;;;;;12.26;100.00;102157.31;4978391;28;20065;-70
2021/09/05 02:20:13;;;;;;;21.73;10.27;;;;;;;12.22;100.00;102150.22;4980007;28;20069;-70
2021/09/05 02:22:41;;;;;;;26.52;11.27;;;;;;;12.21;100.00;102163.63;4977633;28;20112;-70
2021/09/05 02:25:12;;;;;;;25.60;10.10;;;;;;;12.17;100.00;102168.16;4979086;28;20093;-70
2021/09/05 02:27:40;;;;;;;25.50;10.55;;;;;;;12.12;100.00;102168.25;4976017;28;20086;-70
2021/09/05 02:30:10;;;;;;;27.00;10.20;;;;;;;12.11;100.00;102168.28;4965318;28;20104;-70
2021/09/05 02:32:39;;;;;;;19.98;9.32;;;;;;;12.06;100.00;102176.38;4961801;28;20058;-70
2021/09/05 02:35:10;;;;;;;22.08;9.38;;;;;;;12.02;100.00;102172.00;4977826;28;20129;-70
2021/09/05 02:37:39;;;;;;;21.42;10.82;;;;;;;12.00;100.00;102176.47;4975853;28;20082;-70
2021/09/05 02:40:08;;;;;;;21.15;9.88;;;;;;;11.98;100.00;102167.59;4963654;28;20043;-70
2021/09/05 02:42:36;;;;;;;24.85;9.55;;;;;;;11.96;100.00;102172.09;4962676;28;20050;-69
2021/09/05 02:45:07;;;;;;;25.10;11.00;;;;;;;11.95;100.00;102164.97;4970432;28;20050;-71
2021/09/05 02:47:35;;;;;;;20.80;10.02;;;;;;;11.92;100.00;102163.25;4979140;28;20123;-70
2021/09/05 02:50:04;;;;;;;22.38;9.35;;;;;;;11.89;100.00;102157.91;4977882;28;20104;-70
2021/09/05 02:52:32;;;;;;;21.98;10.82;;;;;;;11.88;100.00;102160.59;4977670;28;20054;-71
2021/09/05 02:55:01;;;;;;;24.83;10.43;;;;;;;11.86;100.00;102159.75;4978588;28;20104;-70
2021/09/05 02:57:29;;;;;;;24.73;10.82;;;;;;;11.86;100.00;102157.06;4978144;28;20065;-70
2021/09/05 02:59:57;;;;;;;23.00;10.13;;;;;;;11.85;100.00;102155.28;4981222;28;20074;-70
2021/09/05 03:02:24;;;;;;;24.65;10.93;;;;;;;11.81;100.00;102154.47;4974955;28;20103;-70
2021/09/05 03:04:52;;;;;;;25.98;11.77;;;;;;;11.81;100.00;102158.94;4979490;28;20145;-70
2021/09/05 03:07:20;;;;;;;24.90;9.70;;;;;;;11.82;100.00;102160.72;4967284;28;20050;-71
2021/09/05 03:09:48;;;;;;;24.63;10.35;;;;;;;11.78;100.00;102163.44;4975478;28;20073;-68
2021/09/05 03:12:17;;;;;;;29.33;12.20;;;;;;;11.75;100.00;102158.13;4981991;28;20090;-68
2021/09/05 03:14:45;;;;;;;26.42;11.30;;;;;;;11.75;100.00;102157.25;4972203;28;20058;-66
2021/09/05 03:17:12;;;;;;;26.83;11.13;;;;;;;11.74;100.00;102151.00;4977951;28;20046;-67
2021/09/05 03:19:40;;;;;;;28.60;11.25;;;;;;;11.74;100.00;102150.13;4977778;28;20096;-68
2021/09/05 03:22:08;;;;;;;24.95;10.38;;;;;;;11.69;100.00;102149.31;4976897;28;20050;-66
2021/09/05 03:24:36;;;;;;;21.67;10.02;;;;;;;11.65;100.00;102150.28;4979907;28;20077;-67
2021/09/05 03:27:04;;;;;;;25.02;11.00;;;;;;;11.63;100.00;102153.00;4974298;28;20054;-66
2021/09/05 03:29:33;;;;;;;27.90;10.82;;;;;;;11.64;100.00;102157.41;4981107;28;20054;-67
2021/09/05 03:32:01;;;;;;;26.10;10.30;;;;;;;11.58;100.00;102150.38;4976557;28;20055;-68
2021/09/05 03:34:28;;;;;;;27.55;10.40;;;;;;;11.59;100.00;102154.84;4975323;28;20072;-67
2021/09/05 03:36:56;;;;;;;27.63;12.18;;;;;;;11.54;100.00;102151.34;4970578;28;20077;-66
2021/09/05 03:39:24;;;;;;;24.70;10.80;;;;;;;11.53;100.00;102156.72;4976867;28;20407;-68
2021/09/05 03:41:52;;;;;;;24.15;9.93;;;;;;;11.53;100.00;102151.38;4974224;28;20058;-67
2021/09/05 03:44:20;;;;;;;27.73;12.38;;;;;;;11.50;100.00;102149.59;4973858;28;20053;-67
2021/09/05 03:46:49;;;;;;;27.90;11.23;;;;;;;11.50;100.00;102151.41;4979265;28;20490;-67
2021/09/05 03:49:17;;;;;;;25.20;10.93;;;;;;;11.47;100.00;102149.66;4978033;28;20057;-67
2021/09/05 03:51:45;;;;;;;27.98;11.52;;;;;;;11.47;100.00;102146.97;4976735;28;20192;-67
2021/09/05 03:54:13;;;;;;;24.92;10.32;;;;;;;11.46;100.00;102147.91;4980074;28;20121;-66
2021/09/05 03:56:41;;;;;;;25.85;11.35;;;;;;;11.41;100.00;102147.09;4966442;28;20451;-67
2021/09/05 03:59:09;;;;;;;29.63;11.85;;;;;;;11.40;100.00;102159.53;4983290;28;21323;-67
2021/09/05 04:01:37;;;;;;;24.17;10.43;;;;;;;11.38;100.00;102157.81;4956435;28;20078;-66
2021/09/05 04:04:06;;;;;;;27.27;10.93;;;;;;;11.36;100.00;102152.50;4959738;28;20069;-68
2021/09/05 04:06:34;;;;;;;25.23;10.70;;;;;;;11.34;100.00;102150.72;4977587;28;20269;-67
2021/09/05 04:09:09;;;;;;;24.95;11.25;;;;;;;11.37;100.00;102156.03;4973317;28;20078;-66
2021/09/05 04:11:37;;;;;;;24.67;10.30;;;;;;;11.33;100.00;102159.66;4977375;28;20470;-65
2021/09/05 04:14:05;;;;;;;22.42;10.88;;;;;;;11.31;100.00;102154.34;4975234;28;20050;-66
2021/09/05 04:16:35;;;;;;;27.27;11.57;;;;;;;11.28;100.00;102154.38;4974977;28;20165;-68
2021/09/05 04:19:03;;;;;;;30.52;11.70;;;;;;;11.28;100.00;102149.03;4976020;28;20046;-67
2021/09/05 04:21:32;;;;;;;23.90;11.07;;;;;;;11.26;100.00;102141.97;4975644;28;20047;-66
2021/09/05 04:23:59;;;;;;;26.63;11.13;;;;;;;11.21;100.00;102150.91;4978187;28;20117;-67
2021/09/05 04:26:27;;;;;;;28.75;11.93;;;;;;;11.18;100.00;102155.41;4973865;28;20054;-66
2021/09/05 04:28:55;;;;;;;22.70;11.70;;;;;;;11.18;100.00;102142.94;4979110;28;20156;-66
2021/09/05 04:31:23;;;;;;;27.60;11.60;;;;;;;11.15;100.00;102147.44;4978581;28;20050;-65
2021/09/05 04:33:51;;;;;;;25.60;10.73;;;;;;;11.11;100.00;102151.06;4976249;28;20050;-65
2021/09/05 04:36:19;;;;;;;31.58;12.63;;;;;;;11.06;100.00;102144.91;4976682;28;20502;-66
2021/09/05 04:38:48;;;;;;;27.45;11.43;;;;;;;11.04;100.00;102152.94;4977275;28;20153;-66
2021/09/05 04:41:16;;;;;;;27.33;10.85;;;;;;;11.02;100.00;102144.06;4978950;28;20065;-66
2021/09/05 04:43:44;;;;;;;24.45;11.13;;;;;;;11.00;100.00;102145.88;4972890;28;20065;-66
2021/09/05 04:46:11;;;;;;;24.67;11.55;;;;;;;10.98;100.00;102153.00;4979134;28;20169;-66
2021/09/05 04:48:41;;;;;;;24.88;11.57;;;;;;;10.94;100.00;102157.50;4976215;28;20224;-65
2021/09/05 04:51:09;;;;;;;29.33;11.95;;;;;;;10.93;100.00;102165.53;4974960;28;20123;-65
2021/09/05 04:53:37;;;;;;;26.45;11.23;;;;;;;10.92;100.00;102169.13;4977371;28;20120;-71
2021/09/05 04:56:06;;;;;;;27.38;12.18;;;;;;;10.87;100.00;102168.28;4975997;28;21913;-69
2021/09/05 04:58:34;;;;;;;27.27;11.93;;;;;;;10.86;100.00;102169.19;4978596;28;20069;-69
2021/09/05 05:01:02;;;;;;;27.38;11.60;;;;;;;10.83;100.00;102164.78;4977053;28;20051;-70
2021/09/05 05:03:30;;;;;;;27.70;11.90;;;;;;;10.83;100.00;102173.66;4971981;28;20197;-70
2021/09/05 05:06:18;;;;;;;31.55;12.38;;;;;;;10.83;100.00;102171.00;4976626;28;20054;-69
2021/09/05 05:08:46;;;;;;;24.48;11.15;;;;;;;10.84;100.00;102170.09;4975373;28;20058;-70
2021/09/05 05:11:16;;;;;;;27.50;11.52;;;;;;;10.87;100.00;102173.63;4977406;28;20726;-72
2021/09/05 05:13:44;;;;;;;34.35;13.23;;;;;;;10.89;100.00;102178.03;4974584;28;20517;-71
2021/09/05 05:16:12;;;;;;;27.48;11.40;;;;;;;10.92;100.00;102178.00;4979671;28;20050;-71
2021/09/05 05:18:41;;;;;;;26.52;12.68;;;;;;;10.92;100.00;102178.00;4978584;28;20423;-71
2021/09/05 05:21:09;;;;;;;31.95;11.88;;;;;;;10.94;100.00;102184.19;4976325;28;20046;-68
2021/09/05 05:23:38;;;;;;;27.52;11.80;;;;;;;10.93;100.00;102182.47;4974998;28;20061;-67
2021/09/05 05:26:06;;;;;;;28.48;13.13;;;;;;;10.90;100.00;102190.50;4971665;28;20046;-66
2021/09/05 05:28:35;;;;;;;25.75;11.00;;;;;;;10.91;100.00;102202.06;4977536;28;20181;-65
2021/09/05 05:31:03;;;;;;;25.27;11.55;;;;;;;10.93;100.00;102200.25;4977870;28;20145;-68
2021/09/05 05:33:30;;;;;;;30.08;11.68;;;;;;;10.94;100.00;102199.34;4978367;28;20054;-69
2021/09/05 05:35:58;;;;;;;32.70;13.20;;;;;;;11.00;100.00;102192.16;4978920;28;20793;-69
2021/09/05 05:38:26;;;;;;;28.00;12.10;;;;;;;11.05;100.00;102194.78;4977761;28;20050;-70
2021/09/05 05:40:54;;;;;;;31.10;13.68;;;;;;;11.14;100.00;102201.78;4978888;28;20137;-69
2021/09/05 05:43:22;;;;;;;27.42;11.35;;;;;;;11.23;100.00;102195.44;4980007;28;20263;-70
2021/09/05 05:45:51;;;;;;;30.35;12.50;;;;;;;11.29;100.00;102198.00;4978607;28;20417;-70
2021/09/05 05:48:19;;;;;;;28.75;12.18;;;;;;;11.44;100.00;102212.97;4976008;28;20046;-70
2021/09/05 05:50:47;;;;;;;27.02;12.10;;;;;;;11.52;100.00;102211.06;4977371;28;20065;-71
2021/09/05 05:53:16;;;;;;;28.80;12.50;;;;;;;11.67;100.00;102212.63;4978930;28;20295;-69
2021/09/05 05:55:44;;;;;;;29.75;11.85;;;;;;;11.76;100.00;102215.16;4978637;28;20062;-70
2021/09/05 05:58:11;;;;;;;28.05;11.65;;;;;;;11.87;100.00;102213.22;4979376;28;20047;-70
2021/09/05 06:00:42;;;;;;;29.08;12.07;;;;;;;11.98;99.93;102214.88;4980489;28;20047;-69
2021/09/05 06:03:12;;;;;;;28.83;11.77;;;;;;;12.11;99.26;102217.31;4977704;28;20061;-70
2021/09/05 06:05:40;;;;;;;26.65;12.82;;;;;;;12.25;99.02;102214.41;4978708;28;20498;-70
2021/09/05 06:08:10;;;;;;;29.83;12.77;;;;;;;12.29;97.92;102210.78;4976321;28;20081;-70
2021/09/05 06:10:38;;;;;;;26.88;12.30;;;;;;;12.46;97.51;102212.25;4978346;28;20573;-70
2021/09/05 06:13:05;;;;;;;25.02;12.05;;;;;;;12.55;97.02;102211.19;4980331;28;20077;-70
2021/09/05 06:15:33;;;;;;;26.38;11.65;;;;;;;12.66;96.33;102218.13;4980942;28;20054;-68
2021/09/05 06:18:02;;;;;;;29.10;12.30;;;;;;;12.78;95.84;102221.50;4979699;28;20054;-65
2021/09/05 06:20:32;;;;;;;25.23;11.10;;;;;;;12.91;95.12;102231.06;4977133;28;20058;-66
2021/09/05 06:22:59;;;;;;;27.70;12.18;;;;;;;13.07;94.76;102224.44;4979413;28;20089;-67
2021/09/05 06:25:27;;;;;;;29.23;13.68;;;;;;;13.25;93.40;102231.25;4980086;28;20490;-68
2021/09/05 06:27:55;;;;;;;30.83;12.23;;;;;;;13.33;92.97;102233.81;4979678;28;20264;-67
2021/09/05 06:30:24;;;;;;;27.63;12.70;;;;;;;13.40;92.14;102239.88;4977714;28;20097;-67
2021/09/05 06:32:51;;;;;;;27.55;12.07;;;;;;;13.53;91.92;102235.16;4979502;28;20050;-66
2021/09/05 06:35:22;;;;;;;31.42;13.02;;;;;;;13.71;91.05;102232.06;4975443;28;20463;-66
2021/09/05 06:37:52;;;;;;;23.10;10.98;;;;;;;13.80;89.97;102233.66;4976646;28;20053;-65
2021/09/05 06:40:19;;;;;;;26.73;12.50;;;;;;;13.88;90.67;102228.13;4976533;28;20538;-66
2021/09/05 06:42:47;;;;;;;30.02;12.23;;;;;;;13.98;89.83;102237.72;4979464;28;20506;-66
2021/09/05 06:45:15;;;;;;;25.88;12.32;;;;;;;14.18;89.35;102237.19;4977916;28;20597;-67
2021/09/05 06:47:43;;;;;;;26.38;12.18;;;;;;;14.36;89.14;102239.41;4976209;28;20054;-66
2021/09/05 06:50:11;;;;;;;24.95;11.23;;;;;;;14.67;87.30;102238.63;4970895;28;20374;-67
2021/09/05 06:52:40;;;;;;;22.90;10.82;;;;;;;14.61;86.34;102237.91;4976199;28;20129;-66
2021/09/05 06:55:10;;;;;;;28.52;12.48;;;;;;;14.77;87.28;102241.09;4978577;28;20050;-66
2021/09/05 06:57:38;;;;;;;26.92;11.43;;;;;;;14.97;86.54;102245.91;4979258;28;20171;-66
2021/09/05 07:00:07;;;;;;;28.27;12.98;;;;;;;15.30;85.25;102242.22;4971395;28;20141;-66
2021/09/05 07:02:36;;;;;;;26.30;12.27;;;;;;;15.62;85.18;102251.13;4979351;28;20142;-67
2021/09/05 07:05:05;;;;;;;23.88;11.30;;;;;;;15.77;83.05;102252.50;4972788;28;20063;-67
2021/09/05 07:07:43;;;;;;;23.85;11.52;;;;;;;15.84;82.57;102255.91;4969932;28;20465;-67
2021/09/05 07:10:12;;;;;;;27.60;12.00;;;;;;;16.05;82.12;102249.78;4970899;28;20597;-67
2021/09/05 07:12:42;;;;;;;26.67;11.38;;;;;;;16.02;81.17;102252.63;4962480;28;20087;-68
2021/09/05 07:15:11;;;;;;;25.58;10.63;;;;;;;16.03;81.22;102251.66;4971342;28;20059;-70
2021/09/05 07:17:39;;;;;;;25.85;12.13;;;;;;;16.11;81.08;102253.25;4969811;28;20561;-69
2021/09/05 07:20:08;;;;;;;23.98;11.32;;;;;;;16.18;80.45;102246.72;4979478;28;20050;-67
2021/09/05 07:22:37;;;;;;;26.73;11.70;;;;;;;16.63;80.08;102240.66;4977615;28;20153;-66
2021/09/05 07:25:07;;;;;;;22.13;10.73;;;;;;;16.79;79.38;102251.81;4979770;28;20054;-68
2021/09/05 07:27:37;;;;;;;27.88;12.07;;;;;;;16.61;78.51;102248.81;4977247;28;20589;-67
2021/09/05 07:30:07;;;;;;;24.95;11.13;;;;;;;16.98;77.08;102244.84;4977869;28;20054;-72
2021/09/05 07:32:36;;;;;;;22.38;11.15;;;;;;;16.88;76.67;102246.09;4970667;28;20711;-67
2021/09/05 07:35:04;;;;;;;27.58;11.68;;;;;;;17.26;76.64;102249.19;4975158;28;20054;-67
2021/09/05 07:37:32;;;;;;;25.45;10.75;;;;;;;17.23;74.80;102248.44;4978636;28;20057;-66
2021/09/05 07:40:00;;;;;;;25.10;11.45;;;;;;;17.55;75.87;102255.28;4977529;28;20049;-67
2021/09/05 07:42:28;;;;;;;22.25;10.98;;;;;;;17.35;74.99;102256.94;4978486;28;20053;-71
2021/09/05 07:44:58;;;;;;;21.92;10.52;;;;;;;17.29;74.49;102257.16;4967956;28;20046;-71
2021/09/05 07:47:26;;;;;;;21.27;11.02;;;;;;;17.63;74.09;102257.69;4969168;28;20058;-70
2021/09/05 07:49:54;;;;;;;20.38;10.70;;;;;;;17.55;72.99;102263.38;4971229;28;20050;-70
2021/09/05 07:52:22;;;;;;;25.83;11.52;;;;;;;17.80;72.99;102265.13;4966151;28;20128;-71
2021/09/05 07:54:50;;;;;;;20.92;10.32;;;;;;;17.84;72.40;102273.06;4978916;28;20503;-70
2021/09/05 07:57:17;;;;;;;19.92;10.18;;;;;;;18.02;71.63;102273.28;4976640;28;20085;-67
2021/09/05 07:59:45;;;;;;;21.10;10.45;;;;;;;17.94;71.48;102284.38;4978812;28;20520;-68
2021/09/05 08:02:14;;;;;;;21.52;10.35;;;;;;;18.10;70.79;102276.53;4976407;28;20058;-66
2021/09/05 08:04:42;;;;;;;22.88;10.90;;;;;;;18.32;70.10;102279.25;4975813;28;20145;-67
2021/09/05 08:07:10;;;;;;;21.92;9.82;;;;;;;18.37;69.73;102277.22;4980450;28;20054;-69
2021/09/05 08:09:38;;;;;;;24.33;11.95;;;;;;;18.38;69.75;102278.09;4976552;28;20581;-69
2021/09/05 08:12:07;;;;;;;24.23;9.95;;;;;;;18.46;69.47;102281.34;4978718;28;20134;-66
2021/09/05 08:14:35;;;;;;;23.02;11.73;;;;;;;18.76;68.75;102276.47;4973646;28;20058;-68
2021/09/05 08:17:03;;;;;;;18.95;9.93;;;;;;;18.87;69.08;102284.13;4976099;28;20229;-65
2021/09/05 08:19:33;;;;;;;20.35;10.02;;;;;;;18.70;68.16;102287.53;4978699;28;20186;-67
2021/09/05 08:22:01;;;;;;;19.60;9.98;;;;;;;18.82;67.61;102280.69;4979384;28;20158;-65
2021/09/05 08:24:29;;;;;;;19.85;9.52;;;;;;;18.94;68.00;102284.72;4981244;28;20050;-66
2021/09/05 08:26:57;;;;;;;23.00;11.07;;;;;;;18.90;68.25;102286.69;4976483;28;20046;-67
2021/09/05 08:29:24;;;;;;;23.42;10.65;;;;;;;19.09;68.20;102281.34;4971708;28;20514;-68
2021/09/05 08:31:52;;;;;;;27.15;10.50;;;;;;;19.12;67.03;102277.59;4978543;28;20335;-70
2021/09/05 08:34:20;;;;;;;23.65;10.25;;;;;;;19.14;66.64;102281.13;4979940;28;20058;-69
2021/09/05 08:36:49;;;;;;;21.25;9.57;;;;;;;19.09;65.59;102284.03;4972487;28;20160;-69
2021/09/05 08:39:17;;;;;;;21.02;9.32;;;;;;;19.22;65.26;102284.34;4972183;28;20154;-70
2021/09/05 08:41:45;;;;;;;20.10;9.27;;;;;;;19.56;64.58;102294.50;4983003;28;20245;-69
2021/09/05 08:44:13;;;;;;;17.42;8.15;;;;;;;19.91;63.50;102289.25;4980413;28;20054;-66
2021/09/05 08:46:40;;;;;;;18.20;9.00;;;;;;;19.94;63.05;102293.66;4981785;28;20106;-66
2021/09/05 08:49:08;;;;;;;22.02;9.40;;;;;;;19.62;62.65;102296.03;4978838;28;20089;-67
2021/09/05 08:51:36;;;;;;;18.58;9.40;;;;;;;20.08;62.96;102291.13;4982636;28;20312;-70
2021/09/05 08:54:05;;;;;;;18.20;8.75;;;;;;;20.30;61.93;102307.22;4981111;28;20051;-66
2021/09/05 08:56:33;;;;;;;16.33;8.15;;;;;;;19.89;61.53;102303.84;4983162;28;20046;-66
2021/09/05 08:59:01;;;;;;;19.30;9.18;;;;;;;20.28;61.03;102302.84;4979473;28;20046;-67
2021/09/05 09:01:30;;;;;;;23.40;10.65;;;;;;;20.51;60.74;102302.53;4977506;28;20453;-66
2021/09/05 09:04:06;;;;;;;19.50;8.65;;;;;;;20.63;60.79;102300.19;4979943;28;20047;-66
2021/09/05 09:06:38;;;;;;;19.48;8.55;;;;;;;20.69;59.81;102299.88;4977515;28;20050;-67
2021/09/05 09:09:09;;;;;;;15.95;7.97;;;;;;;20.75;60.25;102290.53;4981839;28;20141;-66
2021/09/05 09:11:52;;;;;;;18.15;8.52;;;;;;;20.78;60.16;102291.25;4979619;28;20761;-66
2021/09/05 09:14:23;;;;;;;18.73;8.75;;;;;;;20.92;59.12;102292.38;4980985;28;20050;-64
2021/09/05 09:16:51;;;;;;;20.90;8.90;;;;;;;20.58;58.76;102294.09;4982117;28;20073;-66
2021/09/05 09:19:24;;;;;;;20.35;8.63;;;;;;;20.83;59.09;102299.16;4976932;28;20108;-65
2021/09/05 09:21:53;;;;;;;17.60;8.65;;;;;;;21.09;59.11;102295.06;4980996;28;20081;-67
2021/09/05 09:24:23;;;;;;;17.10;8.50;;;;;;;21.12;58.33;102294.88;4978780;28;20074;-67
2021/09/05 09:27:02;;;;;;;17.88;8.02;;;;;;;21.19;57.21;102295.44;4980217;28;20086;-66
2021/09/05 09:29:31;;;;;;;18.70;7.70;;;;;;;21.08;57.28;102294.19;4980344;28;20089;-65
2021/09/05 09:32:05;;;;;;;16.48;8.30;;;;;;;21.00;57.68;102285.56;4978171;28;20054;-66
2021/09/05 09:34:40;;;;;;;18.55;8.55;;;;;;;21.21;57.39;102288.09;4978961;28;20054;-65
2021/09/05 09:37:13;;;;;;;18.02;8.98;;;;;;;20.94;56.54;102293.16;4978333;28;20145;-68
2021/09/05 09:39:50;;;;;;;17.92;8.05;;;;;;;21.07;57.07;102288.84;4981554;28;20057;-65
2021/09/05 09:42:32;;;;;;;18.90;8.98;;;;;;;21.52;56.55;102297.28;4977566;28;20133;-68
2021/09/05 09:45:01;;;;;;;20.35;7.97;;;;;;;21.29;56.23;102279.53;4982716;28;20066;-70
2021/09/05 09:47:38;;;;;;;18.55;8.15;;;;;;;21.70;56.15;102285.41;4978933;28;20356;-69
2021/09/05 09:50:07;;;;;;;18.33;8.70;;;;;;;21.88;55.44;102288.03;4980911;28;20129;-70
2021/09/05 09:52:35;;;;;;;15.07;7.90;;;;;;;22.07;54.59;102290.59;4978853;28;20050;-70
2021/09/05 09:55:06;;;;;;;18.20;8.40;;;;;;;21.95;54.22;102289.47;4977478;28;20058;-70
2021/09/05 09:57:35;;;;;;;16.88;8.07;;;;;;;22.29;54.51;102298.41;4982126;28;20054;-67
2021/09/05 10:00:04;;;;;;;21.98;9.48;;;;;;;22.13;53.90;102295.66;4978522;28;20046;-66
2021/09/05 10:02:35;;;;;;;17.33;8.60;;;;;;;22.37;53.54;102298.81;4980584;28;20096;-67
2021/09/05 10:05:04;;;;;;;21.50;9.13;;;;;;;22.39;53.89;102288.75;4976928;28;20050;-66
2021/09/05 10:07:34;;;;;;;17.48;9.25;;;;;;;22.44;53.48;102291.16;4978509;28;20058;-69
2021/09/05 10:10:06;;;;;;;21.52;9.75;;;;;;;22.63;53.55;102289.09;4979341;28;20108;-66
2021/09/05 10:12:34;;;;;;;17.67;8.38;;;;;;;22.71;53.49;102288.63;4977156;28;20057;-66
2021/09/05 10:15:03;;;;;;;18.00;8.90;;;;;;;23.07;53.25;102288.25;4968492;28;20510;-66
2021/09/05 10:17:32;;;;;;;18.38;9.23;;;;;;;23.06;53.20;102294.66;4971419;28;20073;-66
2021/09/05 10:20:01;;;;;;;19.42;9.32;;;;;;;23.02;52.61;102290.38;4978571;28;20395;-67
2021/09/05 10:22:31;;;;;;;18.35;8.80;;;;;;;23.27;52.47;102291.56;4977591;28;20050;-70
2021/09/05 10:25:02;;;;;;;17.08;9.45;;;;;;;23.47;52.22;102287.59;4972193;28;20070;-66
2021/09/05 10:27:34;;;;;;;20.65;9.23;;;;;;;23.39;51.47;102289.91;4980731;28;20066;-70
2021/09/05 10:30:17;;;;;;;21.67;10.45;;;;;;;23.07;51.79;102281.91;4961508;28;20058;-70
2021/09/05 10:32:47;;;;;;;19.27;9.75;;;;;;;23.26;51.78;102289.84;4978854;28;20054;-70
2021/09/05 10:35:31;;;;;;;21.98;9.73;;;;;;;23.40;51.14;102286.22;4977216;28;20062;-70
2021/09/05 10:38:21;;;;;;;22.73;9.23;;;;;;;23.39;51.64;102290.78;4977186;28;20065;-70
2021/09/05 10:40:51;;;;;;;18.13;9.05;;;;;;;23.49;51.32;102286.50;4977603;28;20105;-70
2021/09/05 10:43:22;;;;;;;19.33;9.13;;;;;;;23.85;50.68;102284.25;4977725;28;20513;-71
2021/09/05 10:45:54;;;;;;;21.15;9.35;;;;;;;23.69;50.24;102282.50;4973374;28;20680;-66
2021/09/05 10:48:33;;;;;;;16.17;8.52;;;;;;;23.91;49.76;102289.31;4972828;28;20077;-71
2021/09/05 10:51:14;;;;;;;19.75;8.82;;;;;;;24.20;48.67;102290.09;4980698;28;20108;-72
2021/09/05 10:53:51;;;;;;;19.80;9.27;;;;;;;24.12;48.54;102295.19;4967612;28;20046;-73
2021/09/05 10:56:23;;;;;;;16.60;8.25;;;;;;;23.77;48.85;102286.56;4976143;28;20046;-67
2021/09/05 10:58:55;;;;;;;19.80;8.73;;;;;;;23.63;47.75;102291.09;4975107;28;20281;-66
2021/09/05 11:01:35;;;;;;;15.90;8.93;;;;;;;23.88;47.73;102281.31;4968999;28;20459;-66
2021/09/05 11:04:21;;;;;;;16.92;8.70;;;;;;;24.05;47.79;102282.94;4979079;28;20054;-66
2021/09/05 11:06:50;;;;;;;22.02;9.27;;;;;;;23.71;48.00;102290.56;4977088;28;20077;-66
2021/09/05 11:09:43;;;;;;;16.92;8.75;;;;;;;23.71;48.28;102279.66;4978233;28;20554;-67
2021/09/05 11:12:14;;;;;;;17.58;9.05;;;;;;;23.84;47.70;102277.94;4975923;28;20050;-67
2021/09/05 11:14:57;;;;;;;18.50;9.32;;;;;;;23.96;47.96;102286.28;4978730;28;20057;-69
2021/09/05 11:17:27;;;;;;;19.40;8.95;;;;;;;23.92;47.21;102284.72;4967503;28;20081;-70
2021/09/05 11:19:57;;;;;;;15.48;7.85;;;;;;;24.20;46.99;102281.91;4972573;28;20047;-71